San Angelo, TX

5:26 PM CST on February 12, 2016 (GMT -0600)
Cove Road | | Change Station
CLOSE
Current Station
Personal Weather Station
Location: San Angelo, TX
Elevation: 1873 ft
Nearby Weather Stations

Elev 1873 ft 31.39 °N, 100.48 °W | Updated 5 minutes ago

Clear
Clear
73.2 °F
Feels Like 76 °F
N
7.3
Wind Variable Wind from North

Today
High -- | Low -- °F
--% Chance of Precip.
Yesterday
High -- | Low -- °F
Precip. -- in
Pressure 30.21 in
Visibility 10.0 miles
Clouds Clear
Heat Index 76 °F
Dew Point 37 °F
Humidity 27%
Rainfall 0.00 in
Snow Depth Not available.
7:26 AM 6:26 PM
Waxing Crescent, 24% visible
METAR KSJT 122251Z 07009KT 10SM CLR 23/01 A3022 RMK AO2 SLP228 T02330006
Pressure 30.21 in
Visibility 10.0 miles
Clouds Clear
Heat Index 76 °F
Dew Point 37 °F
Humidity 27%
Rainfall 0.00 in
Snow Depth Not available.
7:26 AM 6:26 PM
Waxing Crescent, 24% visible
METAR KSJT 122251Z 07009KT 10SM CLR 23/01 A3022 RMK AO2 SLP228 T02330006

10-Day Weather Forecast

Almanac

Astronomy

Feb. 12, 2016 Rise Set
Actual Time
Civil Twilight
Nautical Twilight
Astronomical Twilight
Moon
Length of Visible Light
Length of Day
Tomorrow will be .
, % of the Moon is Illuminated

Today's Extremes

State Highs State Lows

Community

WunderPhotos

Upload Photos

1,892,436 photos uploaded!

WunderBlog® & News

Nearby

Air Quality

  Air Quality AQ Index Pollutant
Not available.

Snow Depth

Station Depth Elevation

Earthquake Activity

City Distance Mag. Time & Date
Minimum magnitude displayed is 2.5.

Coastal Water Temperatures

Place Temperature

Stations

Nearby Weather Stations

Station Location Temp. Windchill Dew Point Humidity Wind Precip. Elev Updated Type
                   

Watches & Warnings

There are currently no watches in effect.